createdAt,value
2023-02-01T00:00:49.349Z,9.57
2023-02-01T00:02:12.796Z,15.85
2023-02-01T00:03:36.294Z,13.98
2023-02-01T00:04:58.807Z,11.85
2023-02-01T00:06:22.298Z,12.75
2023-02-01T00:07:48.463Z,18.98
2023-02-01T00:09:10.890Z,8.00
2023-02-01T00:10:34.359Z,15.98
2023-02-01T00:12:00.380Z,11.38
2023-02-01T00:13:25.183Z,13.63
2023-02-01T00:14:49.383Z,18.02
2023-02-01T00:16:13.411Z,11.52
2023-02-01T00:17:37.746Z,8.18
2023-02-01T00:19:03.157Z,12.27
2023-02-01T00:20:26.547Z,16.40
2023-02-01T00:21:49.994Z,17.42
2023-02-01T00:23:12.404Z,12.95
2023-02-01T00:24:35.814Z,10.63
2023-02-01T00:26:01.725Z,15.63
2023-02-01T00:27:25.143Z,9.60
2023-02-01T00:28:49.969Z,12.95
2023-02-01T00:30:13.366Z,17.13
2023-02-01T00:31:36.922Z,15.32
2023-02-01T00:33:00.396Z,11.30
2023-02-01T00:34:23.864Z,10.43
2023-02-01T00:35:46.304Z,10.60
2023-02-01T00:37:09.789Z,15.52
2023-02-01T00:38:33.229Z,15.70
2023-02-01T00:39:56.844Z,10.02
2023-02-01T00:41:21.372Z,11.50
2023-02-01T00:42:44.803Z,7.80
2023-02-01T00:44:08.714Z,14.82
2023-02-01T00:45:32.142Z,12.13
2023-02-01T00:46:55.681Z,8.35
2023-02-01T00:48:18.178Z,8.18
2023-02-01T00:49:41.583Z,7.82
2023-02-01T00:51:05.567Z,11.90
2023-02-01T00:52:28.995Z,14.35
2023-02-01T00:53:51.726Z,6.10
2023-02-01T00:55:15.198Z,10.38
2023-02-01T00:56:38.813Z,9.15
2023-02-01T00:58:02.204Z,14.30
2023-02-01T00:59:27.010Z,12.38
2023-02-01T01:00:50.468Z,10.45
2023-02-01T01:02:15.340Z,17.38
2023-02-01T01:03:40.271Z,5.70
2023-02-01T01:05:03.818Z,11.63
2023-02-01T01:06:29.258Z,14.30
2023-02-01T01:07:51.880Z,14.07
2023-02-01T01:09:15.281Z,9.43
2023-02-01T01:10:37.702Z,9.68
2023-02-01T01:12:03.458Z,9.98
2023-02-01T01:13:26.510Z,12.73
2023-02-01T01:14:51.449Z,14.93
2023-02-01T01:16:15.206Z,5.78
2023-02-01T01:17:37.682Z,16.65
2023-02-01T01:19:01.867Z,8.90
2023-02-01T01:20:24.267Z,7.85
2023-02-01T01:21:47.752Z,12.13
2023-02-01T01:23:10.399Z,9.60
2023-02-01T01:24:33.895Z,12.02
2023-02-01T01:25:56.618Z,11.65
2023-02-01T01:27:24.325Z,8.70
2023-02-01T01:28:47.103Z,9.98
2023-02-01T01:30:14.121Z,11.95
2023-02-01T01:31:37.667Z,10.00
2023-02-01T01:33:00.145Z,5.18
2023-02-01T01:34:23.747Z,7.88
2023-02-01T01:35:46.182Z,12.30
2023-02-01T01:37:09.865Z,14.77
2023-02-01T01:38:32.323Z,10.07
2023-02-01T01:39:56.785Z,20.02
2023-02-01T01:41:22.342Z,9.55
2023-02-01T01:42:45.564Z,9.30
2023-02-01T01:44:24.508Z,10.27
2023-02-01T01:45:49.518Z,7.10
2023-02-01T01:47:12.997Z,7.55
2023-02-01T01:48:35.698Z,13.55
2023-02-01T01:49:59.310Z,13.77
2023-02-01T01:51:24.453Z,8.35
2023-02-01T01:52:49.423Z,9.55
2023-02-01T01:54:18.117Z,9.15
2023-02-01T01:55:44.466Z,12.23
2023-02-01T01:57:10.547Z,4.72
2023-02-01T01:58:34.879Z,12.65
2023-02-01T02:00:01.928Z,8.25
2023-02-01T02:01:26.899Z,10.52
2023-02-01T02:02:54.334Z,6.82
2023-02-01T05:41:38.287Z,6.68
2023-02-01T05:43:01.747Z,10.90
2023-02-01T05:44:25.363Z,10.70
2023-02-01T05:45:48.819Z,9.60
2023-02-01T05:47:13.457Z,17.83
2023-02-01T05:48:36.945Z,18.33
2023-02-01T05:50:00.704Z,11.27
2023-02-01T05:51:24.156Z,8.00
2023-02-01T05:52:47.830Z,19.17
2023-02-01T05:54:12.360Z,22.70
2023-02-01T05:55:35.801Z,12.15
2023-02-01T05:56:59.911Z,14.40
2023-02-01T05:58:23.600Z,14.75
2023-02-01T05:59:48.407Z,19.23
2023-02-01T06:01:12.320Z,17.58
2023-02-01T06:02:35.848Z,9.20
2023-02-01T06:03:58.420Z,9.98
2023-02-01T06:05:21.927Z,25.50
2023-02-01T06:06:45.330Z,10.52
2023-02-01T06:08:09.830Z,11.50
2023-02-01T06:09:33.356Z,17.52
2023-02-01T06:10:59.683Z,16.23
2023-02-01T06:12:24.554Z,14.30
2023-02-01T06:13:48.039Z,12.90
2023-02-01T06:15:11.227Z,11.63
2023-02-01T06:16:34.794Z,28.63
2023-02-01T06:17:57.330Z,12.27
2023-02-01T06:19:20.861Z,10.70
2023-02-01T06:20:44.944Z,18.40
2023-02-01T06:22:08.365Z,13.75
2023-02-01T06:23:32.728Z,12.50
2023-02-01T06:24:56.206Z,13.40
2023-02-01T06:26:20.050Z,6.70
2023-02-01T06:27:45.623Z,10.23
2023-02-01T06:29:09.151Z,10.55
2023-02-01T06:30:32.625Z,13.02
2023-02-01T06:31:55.279Z,10.40
2023-02-01T06:33:19.190Z,13.75
2023-02-01T06:34:42.629Z,14.45
2023-02-01T06:36:07.396Z,13.23
2023-02-01T06:37:32.888Z,12.40
2023-02-01T06:38:57.468Z,11.55
2023-02-01T06:40:21.131Z,19.63
2023-02-01T06:41:44.859Z,10.15
2023-02-01T06:43:11.714Z,17.50
2023-02-01T06:44:35.183Z,12.13
2023-02-01T06:46:02.553Z,14.77
2023-02-01T06:47:26.006Z,12.70
2023-02-01T06:48:50.385Z,21.77
2023-02-01T06:50:13.937Z,12.20
2023-02-01T06:51:37.510Z,10.13
2023-02-01T06:53:00.940Z,14.07
2023-02-01T06:54:24.523Z,8.55
2023-02-01T06:55:54.908Z,6.55
2023-02-01T06:57:18.451Z,10.98
2023-02-01T06:58:43.310Z,11.63
2023-02-01T07:00:07.948Z,13.80
2023-02-01T07:01:31.539Z,10.23
2023-02-01T07:02:54.969Z,10.55
2023-02-01T07:04:18.450Z,10.38
2023-02-01T07:05:41.971Z,14.25
2023-02-01T07:07:05.808Z,14.55
2023-02-01T07:08:30.463Z,9.57
2023-02-01T07:09:55.132Z,17.95
2023-02-01T07:11:20.530Z,9.50
2023-02-01T07:12:43.983Z,10.52
2023-02-01T07:14:08.058Z,16.80
2023-02-01T07:15:31.678Z,13.98
2023-02-01T07:16:55.175Z,14.10
2023-02-01T07:18:18.689Z,9.93
2023-02-01T07:19:42.238Z,14.68
2023-02-01T07:21:06.343Z,7.90
2023-02-01T07:22:30.150Z,11.20
2023-02-01T07:23:53.626Z,15.25
2023-02-01T07:25:17.261Z,9.10
2023-02-01T07:26:40.826Z,8.52
2023-02-01T07:28:04.405Z,17.88
2023-02-01T07:29:29.241Z,15.65
2023-02-01T07:30:52.935Z,10.77
2023-02-01T07:32:19.046Z,10.45
2023-02-01T07:33:42.539Z,14.23
2023-02-01T07:35:06.539Z,19.30
2023-02-01T07:36:29.997Z,14.55
2023-02-01T07:37:53.437Z,12.95
2023-02-01T07:39:16.983Z,9.05
2023-02-01T07:40:40.367Z,14.27
2023-02-01T07:42:04.031Z,9.13
2023-02-01T07:43:27.883Z,10.98
2023-02-01T07:44:55.289Z,12.43
2023-02-01T07:46:19.038Z,8.55
2023-02-01T07:47:42.477Z,17.35
2023-02-01T07:49:05.838Z,16.73
2023-02-01T07:50:29.302Z,15.00
2023-02-01T07:51:53.239Z,7.10
2023-02-01T07:53:16.770Z,6.47
2023-02-01T07:54:40.197Z,11.52
2023-02-01T07:56:04.080Z,7.53
2023-02-01T07:57:28.040Z,12.10
2023-02-01T07:58:52.085Z,6.90
2023-02-01T08:00:34.939Z,9.05
2023-02-01T08:01:58.354Z,11.55
2023-02-01T08:03:21.826Z,10.20
2023-02-01T08:04:45.233Z,10.68
2023-02-01T08:06:09.015Z,21.35
2023-02-01T08:07:32.821Z,9.30
2023-02-01T08:08:56.924Z,7.55
2023-02-01T08:10:21.420Z,8.18
2023-02-01T08:11:45.309Z,8.88
2023-02-01T08:13:08.981Z,10.10
2023-02-01T08:14:32.733Z,13.05
2023-02-01T08:16:01.943Z,14.13
2023-02-01T08:17:25.470Z,10.48
2023-02-01T08:18:49.081Z,11.13
2023-02-01T08:20:14.682Z,4.60
2023-02-01T08:21:41.057Z,10.50
2023-02-01T08:23:04.961Z,13.90
2023-02-01T08:24:28.512Z,5.15
2023-02-01T08:25:52.146Z,8.60
2023-02-01T08:27:15.744Z,4.50
2023-02-01T08:28:39.664Z,8.65
2023-02-01T08:30:03.111Z,8.32
2023-02-01T08:31:29.990Z,8.15
2023-02-01T08:32:53.549Z,7.18
2023-02-01T08:34:17.026Z,13.10
2023-02-01T08:35:44.083Z,7.63
2023-02-01T08:37:08.282Z,8.90
2023-02-01T08:38:31.889Z,13.27
2023-02-01T08:39:55.355Z,7.88
2023-02-01T08:41:21.504Z,11.35
2023-02-01T08:42:53.119Z,5.50
2023-02-01T08:44:16.642Z,7.20
2023-02-01T08:45:40.239Z,10.50
2023-02-01T08:47:06.433Z,12.35
2023-02-01T08:48:29.907Z,5.85
2023-02-01T08:49:54.345Z,6.25
2023-02-01T08:51:20.153Z,11.70
2023-02-01T08:52:43.800Z,2.72
2023-02-01T08:54:07.235Z,8.98
2023-02-01T08:55:30.715Z,10.13
2023-02-01T08:56:55.431Z,9.13
2023-02-01T08:58:18.961Z,6.30
2023-02-01T08:59:42.463Z,8.98
2023-02-01T09:01:07.135Z,11.60
2023-02-01T09:02:32.118Z,4.03
2023-02-01T09:03:55.633Z,2.35
2023-02-01T09:05:23.091Z,5.20
2023-02-01T09:06:46.757Z,2.47
2023-02-01T09:08:10.556Z,4.05
2023-02-01T09:09:34.124Z,4.10
2023-02-01T09:11:03.157Z,6.70
2023-02-01T09:12:27.080Z,2.47
2023-02-01T09:13:51.016Z,5.05
2023-02-01T09:15:14.570Z,6.88
2023-02-01T09:16:38.025Z,4.40
2023-02-01T09:18:02.875Z,4.28
2023-02-01T09:19:27.329Z,4.68
2023-02-01T09:20:51.002Z,2.97
2023-02-01T09:22:14.497Z,6.80
2023-02-01T09:23:38.212Z,5.03
2023-02-01T09:25:01.694Z,1.60
2023-02-01T09:26:32.171Z,5.15
2023-02-01T09:27:56.329Z,1.63
2023-02-01T09:29:19.851Z,2.45
2023-02-01T09:30:43.388Z,2.88
2023-02-01T09:32:07.520Z,5.35
2023-02-01T09:33:32.501Z,4.28
2023-02-01T09:34:56.130Z,1.67
2023-02-01T09:36:21.741Z,6.85
2023-02-01T09:37:45.338Z,2.50
2023-02-01T09:39:08.787Z,1.88
2023-02-01T09:40:32.302Z,6.20
2023-02-01T09:42:02.366Z,4.47
2023-02-01T09:43:39.812Z,1.23
2023-02-01T09:45:16.703Z,1.65
2023-02-01T09:46:40.144Z,3.67
2023-02-01T09:48:10.222Z,3.13
2023-02-01T09:49:38.521Z,2.83
2023-02-01T09:51:06.969Z,2.70
2023-02-01T09:52:36.958Z,4.43
2023-02-01T09:54:03.593Z,1.65
2023-02-01T09:55:33.871Z,0.30
2023-02-01T09:57:00.655Z,6.07
2023-02-01T09:58:28.375Z,1.67
2023-02-01T09:59:57.830Z,2.95
2023-02-01T10:01:24.676Z,1.85
2023-02-01T10:02:48.320Z,2.20
2023-02-01T10:04:13.993Z,0.35
2023-02-01T10:06:09.778Z,2.03
2023-02-01T10:07:39.435Z,3.95
2023-02-01T10:09:16.600Z,3.20
2023-02-01T10:10:45.844Z,5.18
2023-02-01T10:12:57.045Z,3.78
2023-02-01T10:14:47.445Z,4.55
2023-02-01T10:16:19.334Z,4.18
2023-02-01T10:17:53.983Z,5.40
2023-02-01T10:19:27.214Z,5.53
2023-02-01T10:21:03.157Z,1.85
2023-02-01T10:22:59.883Z,4.03
2023-02-01T10:24:41.997Z,2.13
2023-02-01T10:26:10.440Z,1.77
2023-02-01T10:27:37.385Z,3.50
2023-02-01T10:29:04.085Z,2.75
2023-02-01T10:30:32.330Z,3.95
2023-02-01T10:31:58.522Z,3.35
2023-02-01T10:33:27.210Z,4.65
2023-02-01T10:34:54.268Z,4.00
2023-02-01T10:36:24.180Z,1.88
2023-02-01T10:37:48.647Z,1.63
2023-02-01T10:39:13.043Z,2.85
2023-02-01T10:40:36.690Z,2.20
2023-02-01T10:42:00.259Z,7.28
2023-02-01T10:43:24.094Z,6.68
2023-02-01T10:44:49.183Z,3.95
2023-02-01T10:46:12.765Z,3.13
2023-02-01T10:47:36.203Z,3.17
2023-02-01T10:49:02.334Z,2.83
2023-02-01T10:50:35.843Z,5.72
2023-02-01T10:52:08.159Z,4.72
2023-02-01T10:53:37.354Z,3.40
2023-02-01T10:55:32.820Z,6.07
2023-02-01T10:56:56.322Z,3.50
2023-02-01T10:58:21.617Z,5.00
2023-02-01T10:59:46.003Z,8.07
2023-02-01T11:01:11.412Z,1.98
2023-02-01T11:02:37.543Z,3.08
2023-02-01T11:04:03.011Z,6.85
2023-02-01T11:05:27.503Z,4.18
2023-02-01T11:06:53.564Z,3.65
2023-02-01T11:08:18.477Z,6.53
2023-02-01T11:09:43.378Z,2.05
2023-02-01T11:11:12.216Z,3.20
2023-02-01T11:12:39.719Z,2.88
2023-02-01T11:14:18.283Z,4.43
2023-02-01T11:15:46.351Z,6.10
2023-02-01T11:17:25.945Z,8.55
2023-02-01T11:18:56.621Z,10.38
2023-02-01T11:20:22.075Z,6.65
2023-02-01T11:21:46.790Z,7.93
2023-02-01T11:23:17.033Z,7.93
2023-02-01T11:24:40.845Z,3.45
2023-02-01T11:26:10.052Z,9.45
2023-02-01T11:27:40.293Z,13.30
2023-02-01T11:29:12.173Z,5.32
2023-02-01T11:30:39.208Z,5.53
2023-02-01T11:32:02.838Z,8.68
2023-02-01T11:33:30.769Z,7.45
2023-02-01T11:34:56.786Z,4.93
2023-02-01T11:36:21.529Z,4.45
2023-02-01T11:37:45.849Z,7.05
2023-02-01T11:39:28.172Z,6.72
2023-02-01T11:40:51.936Z,5.45
2023-02-01T11:42:18.198Z,7.45
2023-02-01T11:43:53.617Z,8.63
2023-02-01T11:45:22.706Z,11.48
2023-02-01T11:46:47.068Z,7.43
2023-02-01T11:48:15.020Z,9.57
2023-02-01T11:49:41.561Z,8.85
2023-02-01T11:51:24.121Z,6.10
2023-02-01T11:52:59.809Z,9.68
2023-02-01T11:54:51.361Z,10.95
2023-02-01T11:56:21.380Z,5.05
2023-02-01T11:57:58.330Z,12.95
2023-02-01T11:59:37.435Z,4.55
2023-02-01T12:01:14.776Z,9.90
2023-02-01T12:03:06.717Z,7.18
2023-02-01T12:05:08.755Z,5.28
2023-02-01T12:06:40.844Z,6.03
2023-02-01T12:08:18.422Z,4.53
2023-02-01T12:09:51.533Z,8.40
2023-02-01T12:11:31.832Z,6.35
2023-02-01T12:13:04.743Z,7.53
2023-02-01T12:14:47.243Z,4.95
2023-02-01T12:16:19.738Z,8.10
2023-02-01T12:18:01.839Z,8.77
2023-02-01T12:19:49.905Z,4.93
2023-02-01T12:21:34.692Z,6.95
2023-02-01T12:23:08.565Z,7.68
2023-02-01T12:24:53.661Z,7.30
2023-02-01T12:26:50.233Z,11.30
2023-02-01T12:28:33.820Z,11.73
2023-02-01T12:30:10.078Z,9.32
2023-02-01T12:31:51.052Z,8.90
2023-02-01T12:33:20.387Z,17.88
2023-02-01T12:35:00.898Z,7.32
2023-02-01T12:36:31.479Z,9.25
2023-02-01T12:38:05.139Z,5.47
2023-02-01T12:39:33.692Z,8.02
2023-02-01T12:41:09.551Z,7.80
2023-02-01T12:42:36.597Z,10.98
2023-02-01T12:44:07.620Z,10.02
2023-02-01T12:45:36.957Z,8.02
2023-02-01T12:47:02.721Z,6.95
2023-02-01T12:48:31.880Z,14.13
2023-02-01T12:49:59.815Z,10.05
2023-02-01T12:51:26.879Z,12.60
2023-02-01T12:52:52.319Z,12.07
2023-02-01T12:54:22.095Z,9.05
2023-02-01T12:55:50.687Z,7.07
2023-02-01T12:57:17.222Z,10.52
2023-02-01T12:58:43.879Z,10.15
2023-02-01T13:00:23.094Z,14.10
2023-02-01T13:01:53.139Z,9.65
2023-02-01T13:03:26.342Z,12.52
2023-02-01T13:05:00.715Z,11.25
2023-02-01T13:06:28.580Z,8.07
2023-02-01T13:07:55.804Z,5.20
2023-02-01T13:09:25.151Z,8.10
2023-02-01T13:10:50.894Z,8.88
2023-02-01T13:12:17.975Z,7.53
2023-02-01T13:13:48.460Z,8.02
2023-02-01T13:15:16.854Z,7.22
2023-02-01T13:16:42.890Z,6.53
2023-02-01T13:18:07.923Z,6.72
2023-02-01T13:19:32.175Z,6.95
2023-02-01T13:21:00.704Z,2.97
2023-02-01T13:22:27.918Z,4.05
2023-02-01T13:23:52.252Z,5.60
2023-02-01T13:25:17.965Z,7.18
2023-02-01T13:26:41.601Z,6.15
2023-02-01T13:28:09.341Z,5.65
2023-02-01T13:29:33.131Z,3.65
2023-02-01T13:31:08.365Z,7.43
2023-02-01T13:33:51.689Z,10.23
2023-02-01T13:35:01.069Z,6.45
2023-02-01T13:36:50.711Z,3.80
2023-02-01T13:38:48.855Z,6.82
2023-02-01T13:40:26.057Z,7.32
2023-02-01T13:41:55.846Z,10.80
2023-02-01T13:43:24.161Z,11.50
2023-02-01T13:44:49.496Z,8.85
2023-02-01T13:46:16.034Z,6.13
2023-02-01T13:47:44.017Z,8.55
2023-02-01T13:49:07.682Z,5.57
2023-02-01T13:50:35.050Z,8.32
2023-02-01T13:51:59.707Z,7.00
2023-02-01T13:53:28.839Z,7.97
2023-02-01T13:55:04.276Z,5.35
2023-02-01T13:56:31.261Z,7.38
2023-02-01T13:58:03.733Z,9.98
2023-02-01T13:59:55.846Z,5.35
2023-02-01T14:01:37.927Z,9.07
2023-02-01T14:03:19.839Z,11.45
2023-02-01T14:04:51.031Z,6.15
2023-02-01T14:06:45.112Z,4.30
2023-02-01T14:08:14.797Z,9.38
2023-02-01T14:09:39.727Z,14.23
2023-02-01T14:11:02.355Z,9.43
2023-02-01T14:12:47.533Z,10.35
2023-02-01T14:14:45.029Z,10.63
2023-02-01T14:16:17.110Z,11.05
2023-02-01T14:17:42.110Z,11.57
2023-02-01T14:19:11.331Z,9.07
2023-02-01T14:20:44.977Z,11.18
2023-02-01T14:22:35.806Z,10.70
2023-02-01T14:24:02.315Z,12.52
2023-02-01T14:25:25.166Z,9.88
2023-02-01T14:26:50.658Z,9.18
2023-02-01T14:28:20.823Z,6.07
2023-02-01T14:29:46.951Z,8.70
2023-02-01T14:31:20.122Z,7.30
2023-02-01T14:32:47.648Z,12.65
2023-02-01T14:34:28.760Z,11.85
2023-02-01T14:36:08.873Z,11.77
2023-02-01T14:37:36.403Z,4.88
2023-02-01T14:39:00.708Z,12.52
2023-02-01T14:40:28.872Z,10.30
2023-02-01T14:42:02.496Z,10.32
2023-02-01T14:43:53.601Z,8.65
2023-02-01T14:45:52.303Z,12.60
2023-02-01T14:47:36.204Z,9.77
2023-02-01T14:49:01.111Z,10.32
2023-02-01T14:50:34.441Z,12.13
2023-02-01T14:51:59.681Z,13.93
2023-02-01T14:53:25.630Z,11.40
2023-02-01T14:54:50.826Z,22.35
2023-02-01T14:56:21.184Z,13.63
2023-02-01T14:57:45.416Z,6.28
2023-02-01T14:59:11.244Z,11.63
2023-02-01T15:00:35.194Z,13.10
2023-02-01T15:02:01.252Z,11.27
2023-02-01T15:03:50.844Z,6.45
2023-02-01T15:05:34.969Z,8.20
2023-02-01T15:06:59.605Z,6.28
2023-02-01T15:08:28.933Z,4.50
2023-02-01T15:09:56.786Z,2.80
2023-02-01T15:11:20.173Z,8.98
2023-02-01T15:12:45.396Z,2.00
2023-02-01T15:14:16.764Z,2.33
2023-02-01T15:15:40.265Z,4.35
2023-02-01T15:17:04.393Z,3.83
2023-02-01T15:18:27.825Z,3.05
2023-02-01T15:19:59.675Z,3.78
2023-02-01T15:21:30.379Z,4.43
2023-02-01T15:22:58.327Z,6.00
2023-02-01T15:24:23.724Z,5.47
2023-02-01T15:25:49.309Z,2.75
2023-02-01T15:27:13.055Z,3.42
2023-02-01T15:28:36.895Z,3.10
2023-02-01T15:30:08.651Z,2.97
2023-02-01T15:31:37.487Z,6.05
2023-02-01T15:33:09.149Z,4.53
2023-02-01T15:34:47.846Z,3.20
2023-02-01T15:36:13.707Z,4.50
2023-02-01T15:37:38.502Z,9.38
2023-02-01T15:39:21.041Z,3.83
2023-02-01T15:40:56.797Z,2.35
2023-02-01T15:42:20.989Z,3.05
2023-02-01T15:43:48.938Z,4.28
2023-02-01T15:45:19.519Z,2.42
2023-02-01T15:46:44.901Z,1.85
2023-02-01T15:48:13.569Z,5.18
2023-02-01T15:49:40.892Z,2.80
2023-02-01T15:51:04.881Z,2.20
2023-02-01T15:52:36.519Z,3.50
2023-02-01T15:54:03.611Z,0.80
2023-02-01T15:55:35.030Z,2.28
2023-02-01T15:56:59.607Z,2.75
2023-02-01T15:58:24.818Z,2.88
2023-02-01T15:59:48.426Z,1.00
2023-02-01T16:01:14.714Z,3.13
2023-02-01T16:02:40.026Z,3.17
2023-02-01T16:04:16.557Z,3.00
2023-02-01T16:05:43.469Z,1.35
2023-02-01T16:07:27.024Z,0.88
2023-02-01T16:08:54.983Z,2.60
2023-02-01T16:10:28.731Z,1.27
2023-02-01T16:11:57.376Z,3.33
2023-02-01T16:13:22.097Z,1.48
2023-02-01T16:14:45.600Z,1.15
2023-02-01T16:16:14.869Z,2.47
2023-02-01T16:17:38.484Z,4.72
2023-02-01T16:19:01.960Z,1.25
2023-02-01T16:20:25.642Z,1.83
2023-02-01T16:21:49.896Z,2.58
2023-02-01T16:23:12.561Z,0.40
2023-02-01T16:24:36.234Z,2.42
2023-02-01T16:26:01.133Z,1.20
2023-02-01T16:27:24.860Z,3.30
2023-02-01T16:28:49.054Z,2.85
2023-02-01T16:30:13.182Z,3.85
2023-02-01T16:31:39.077Z,0.73
2023-02-01T16:33:05.894Z,0.77
2023-02-01T16:34:29.388Z,1.02
2023-02-01T16:35:52.643Z,1.15
2023-02-01T16:37:17.331Z,2.85
2023-02-01T16:38:40.946Z,1.33
2023-02-01T16:40:04.829Z,1.23
2023-02-01T16:41:29.945Z,2.40
2023-02-01T16:42:56.223Z,1.75
2023-02-01T16:44:19.674Z,1.25
2023-02-01T16:45:44.732Z,3.17
2023-02-01T16:47:16.033Z,0.30
2023-02-01T16:48:40.507Z,1.15
2023-02-01T16:50:17.141Z,1.00
2023-02-01T16:51:45.347Z,0.40
2023-02-01T16:53:09.530Z,1.13
2023-02-01T16:54:32.939Z,0.65
2023-02-01T16:55:58.241Z,1.60
2023-02-01T16:57:24.331Z,0.30
2023-02-01T16:58:48.132Z,1.67
2023-02-01T17:00:24.022Z,2.03
2023-02-01T17:01:48.717Z,1.45
2023-02-01T17:03:17.563Z,2.22
2023-02-01T17:04:41.338Z,1.60
2023-02-01T17:06:05.322Z,0.80
2023-02-01T17:07:29.940Z,4.18
2023-02-01T17:08:54.861Z,1.40
2023-02-01T17:10:34.164Z,3.47
2023-02-01T17:11:58.278Z,0.85
2023-02-01T17:13:23.119Z,0.82
2023-02-01T17:14:46.588Z,0.95
2023-02-01T17:16:21.271Z,1.98
2023-02-01T17:17:45.212Z,1.25
2023-02-01T17:19:11.804Z,4.50
2023-02-01T17:20:36.363Z,2.95
2023-02-01T17:22:01.280Z,0.65
2023-02-01T17:23:25.014Z,2.63
2023-02-01T17:24:49.263Z,9.38
2023-02-01T17:26:13.133Z,8.57
2023-02-01T17:27:38.784Z,1.85
2023-02-01T17:29:03.752Z,11.27
2023-02-01T17:30:27.238Z,2.28
2023-02-01T17:31:53.293Z,6.63
2023-02-01T17:33:23.128Z,3.88
2023-02-01T17:34:46.901Z,1.95
2023-02-01T17:36:14.766Z,1.92
2023-02-01T17:37:38.503Z,2.42
2023-02-01T17:39:06.001Z,4.28
2023-02-01T17:40:30.096Z,3.00
2023-02-01T17:41:53.593Z,3.63
2023-02-01T17:43:20.255Z,7.30
2023-02-01T17:44:45.474Z,4.93
2023-02-01T17:46:13.986Z,6.10
2023-02-01T17:47:38.805Z,1.58
2023-02-01T17:49:03.722Z,2.47
2023-02-01T17:50:28.214Z,7.03
2023-02-01T17:51:51.878Z,5.82
2023-02-01T17:53:16.771Z,5.82
2023-02-01T17:54:40.192Z,4.15
2023-02-01T17:56:03.959Z,6.35
2023-02-01T17:57:27.387Z,3.55
2023-02-01T17:58:51.188Z,11.65
2023-02-01T18:00:17.346Z,2.78
2023-02-01T18:01:41.246Z,4.95
2023-02-01T18:03:05.307Z,5.38
2023-02-01T18:04:28.815Z,5.82
2023-02-01T18:05:53.675Z,9.75
2023-02-01T18:07:17.255Z,6.32
2023-02-01T18:08:41.679Z,5.97
2023-02-01T18:10:05.616Z,1.75
2023-02-01T18:11:32.893Z,2.30
2023-02-01T18:12:57.421Z,4.55
2023-02-01T18:14:21.088Z,11.38
2023-02-01T18:15:46.004Z,6.70
2023-02-01T18:17:10.285Z,5.32
2023-02-01T18:18:34.098Z,9.85
2023-02-01T18:19:59.923Z,3.78
2023-02-01T18:21:24.320Z,3.38
2023-02-01T18:22:49.631Z,4.30
2023-02-01T18:24:14.781Z,5.50
2023-02-01T18:25:38.640Z,5.55
2023-02-01T18:27:02.403Z,7.10
2023-02-01T18:28:25.906Z,4.78
2023-02-01T18:29:49.594Z,3.22
2023-02-01T18:31:23.096Z,4.53
2023-02-01T18:32:46.984Z,1.92
2023-02-01T18:34:16.796Z,6.22
2023-02-01T18:35:40.261Z,3.88
2023-02-01T18:37:03.824Z,3.97
2023-02-01T18:38:27.303Z,6.13
2023-02-01T18:39:50.165Z,5.47
2023-02-01T18:41:16.106Z,5.82
2023-02-01T18:42:38.619Z,2.65
2023-02-01T18:44:02.102Z,4.55
2023-02-01T18:45:37.464Z,2.40
2023-02-01T18:47:02.384Z,6.45
2023-02-01T18:48:26.026Z,3.92
2023-02-01T18:49:49.495Z,8.50
2023-02-01T18:51:14.063Z,6.82
2023-02-01T18:52:37.619Z,3.35
2023-02-01T18:54:01.324Z,5.32
2023-02-01T18:55:25.636Z,6.40
2023-02-01T18:56:49.195Z,5.72
2023-02-01T18:58:15.979Z,7.00
2023-02-01T18:59:39.859Z,3.92
2023-02-01T19:01:08.978Z,4.38
2023-02-01T19:02:36.743Z,5.88
2023-02-01T19:04:09.175Z,2.30
2023-02-01T19:05:48.164Z,5.13
2023-02-01T19:07:11.623Z,6.40
2023-02-01T19:08:37.574Z,3.90
2023-02-01T19:10:01.345Z,7.72
2023-02-01T19:11:25.071Z,6.25
2023-02-01T19:12:48.574Z,6.70
2023-02-01T19:14:12.067Z,7.75
2023-02-01T19:15:40.115Z,6.10
2023-02-01T19:17:03.762Z,5.90
2023-02-01T19:18:28.760Z,10.23
2023-02-01T19:19:52.399Z,6.90
2023-02-01T19:21:15.832Z,9.82
2023-02-01T19:22:40.559Z,3.40
2023-02-01T19:24:04.155Z,5.53
2023-02-01T19:25:29.960Z,10.93
2023-02-01T19:26:53.706Z,2.60
2023-02-01T19:28:17.656Z,4.30
2023-02-01T19:29:43.081Z,6.85
2023-02-01T19:31:08.677Z,3.17
2023-02-01T19:32:32.303Z,6.20
2023-02-01T19:33:57.521Z,4.60
2023-02-01T19:35:22.504Z,4.32
2023-02-01T19:36:46.067Z,6.40
2023-02-01T19:38:09.944Z,4.35
2023-02-01T19:39:33.564Z,4.88
2023-02-01T19:41:00.121Z,4.65
2023-02-01T19:42:23.831Z,7.45
2023-02-01T19:43:47.434Z,6.78
2023-02-01T19:45:11.801Z,5.07
2023-02-01T19:46:35.645Z,4.60
2023-02-01T19:47:59.550Z,6.07
2023-02-01T19:49:24.393Z,6.00
2023-02-01T19:50:48.243Z,9.75
2023-02-01T19:52:12.141Z,5.35
2023-02-01T19:53:35.625Z,2.65
2023-02-01T19:55:00.990Z,5.28
2023-02-01T19:56:24.735Z,14.75
2023-02-01T19:57:49.053Z,11.02
2023-02-01T19:59:13.612Z,8.30
2023-02-01T20:00:36.459Z,8.40
2023-02-01T20:01:59.100Z,6.93
2023-02-01T20:03:22.759Z,6.28
2023-02-01T20:04:47.566Z,7.50
2023-02-01T20:06:11.376Z,3.85
2023-02-01T20:07:34.897Z,8.57
2023-02-01T20:08:58.706Z,8.32
2023-02-01T20:10:22.237Z,4.72
2023-02-01T20:11:45.849Z,4.88
2023-02-01T20:13:09.393Z,5.85
2023-02-01T20:14:33.070Z,5.28
2023-02-01T20:16:00.076Z,17.45
2023-02-01T20:17:26.282Z,6.20
2023-02-01T20:18:50.016Z,5.90
2023-02-01T20:20:15.372Z,5.03
2023-02-01T20:21:39.267Z,3.70
2023-02-01T20:23:02.894Z,9.18
2023-02-01T20:24:27.897Z,9.90
2023-02-01T20:25:52.158Z,9.57
2023-02-01T20:27:15.561Z,9.40
2023-02-01T20:28:39.506Z,9.02
2023-02-01T20:30:02.994Z,7.88
2023-02-01T20:31:28.799Z,5.30
2023-02-01T20:32:52.915Z,6.72
2023-02-01T20:34:16.437Z,7.70
2023-02-01T20:35:46.169Z,2.08
2023-02-01T20:37:09.660Z,8.73
2023-02-01T20:38:33.143Z,9.88
2023-02-01T20:39:56.693Z,8.15
2023-02-01T20:41:20.166Z,11.73
2023-02-01T20:42:44.516Z,4.75
2023-02-01T20:44:08.076Z,13.23
2023-02-01T20:45:31.527Z,4.60
2023-02-01T20:46:55.247Z,5.18
2023-02-01T20:48:18.808Z,2.53
2023-02-01T20:49:42.318Z,3.50
2023-02-01T20:51:07.399Z,3.95
2023-02-01T20:52:30.967Z,6.68
2023-02-01T20:53:55.217Z,3.65
2023-02-01T20:55:17.962Z,7.55
2023-02-01T20:56:41.457Z,8.38
2023-02-01T20:58:05.277Z,15.00
2023-02-01T20:59:28.928Z,4.25
2023-02-01T21:00:52.642Z,7.63
2023-02-01T21:02:16.176Z,7.20
2023-02-01T21:03:40.217Z,7.80
2023-02-01T21:05:03.718Z,5.85
2023-02-01T21:06:28.797Z,12.15
2023-02-01T21:07:54.635Z,7.35
2023-02-01T21:09:18.707Z,4.00
2023-02-01T21:10:42.406Z,6.68
2023-02-01T21:12:06.243Z,4.68
2023-02-01T21:13:31.407Z,3.85
2023-02-01T21:14:56.568Z,4.70
2023-02-01T21:16:21.533Z,4.82
2023-02-01T21:17:44.926Z,5.47
2023-02-01T21:19:09.851Z,8.10
2023-02-01T21:20:33.330Z,3.60
2023-02-01T21:21:58.212Z,4.35
2023-02-01T21:23:21.720Z,6.57
2023-02-01T21:24:45.220Z,4.18
2023-02-01T21:26:10.732Z,7.47
2023-02-01T21:27:34.211Z,4.22
2023-02-01T21:28:58.342Z,9.88
2023-02-01T21:30:20.893Z,9.88
2023-02-01T21:31:44.920Z,8.02
2023-02-01T21:33:08.881Z,4.97
2023-02-01T21:34:32.337Z,7.78
2023-02-01T21:35:55.815Z,10.77
2023-02-01T21:37:25.672Z,4.72
2023-02-01T21:38:51.351Z,7.88
2023-02-01T21:40:14.690Z,5.70
2023-02-01T21:41:56.238Z,7.05
2023-02-01T21:43:19.760Z,6.78
2023-02-01T21:44:46.075Z,16.17
2023-02-01T21:46:09.577Z,4.60
2023-02-01T21:47:32.990Z,8.10
2023-02-01T21:49:04.036Z,4.82
2023-02-01T21:50:28.993Z,8.45
2023-02-01T21:51:52.681Z,5.03
2023-02-01T21:53:17.466Z,4.60
2023-02-01T21:54:40.082Z,5.95
2023-02-01T21:56:03.509Z,7.03
2023-02-01T21:57:27.302Z,6.95
2023-02-01T21:58:50.830Z,5.68
2023-02-01T22:00:15.688Z,2.75
2023-02-01T22:01:39.620Z,6.18
2023-02-01T22:03:03.033Z,9.73
2023-02-01T22:04:26.633Z,8.55
2023-02-01T22:05:51.715Z,8.45
2023-02-01T22:07:15.173Z,6.63
2023-02-01T22:08:39.280Z,10.13
2023-02-01T22:10:03.168Z,12.02
2023-02-01T22:11:27.378Z,5.63
2023-02-01T22:12:50.836Z,4.57
2023-02-01T22:14:14.638Z,5.55
2023-02-01T22:15:38.259Z,2.22
2023-02-01T22:17:01.757Z,6.05
2023-02-01T22:18:25.218Z,5.05
2023-02-01T22:19:48.651Z,8.65
2023-02-01T22:21:11.503Z,9.80
2023-02-01T22:22:34.961Z,6.75
2023-02-01T22:24:00.339Z,6.80
2023-02-01T22:25:24.634Z,5.07
2023-02-01T22:26:47.499Z,4.13
2023-02-01T22:28:30.883Z,5.28
2023-02-01T22:29:56.946Z,3.58
2023-02-01T22:31:19.839Z,7.68
2023-02-01T22:32:43.322Z,7.00
2023-02-01T22:34:06.816Z,3.90
2023-02-01T22:35:30.348Z,9.30
2023-02-01T22:36:52.853Z,9.77
2023-02-01T22:38:16.288Z,9.30
2023-02-01T22:39:41.506Z,6.03
2023-02-01T22:41:05.789Z,5.32
2023-02-01T22:42:29.343Z,7.50
2023-02-01T22:43:52.868Z,6.95